Time;durP1;ratioP1;P1;durP2;ratioP2;P2;SDS_P1;SDS_P2;PMS_P1;PMS_P2;Temp;Humidity;BMP_temperature;BMP_pressure;BME280_temperature;BME280_humidity;BME280_pressure;Samples;Min_cycle;Max_cycle;Signal;HPM_P1;HPM_P2
2022/05/10 00:01:03;;;;;;;21.73;13.43;;;15.60;82.10;;;;;;5051865;28;20631;-77
2022/05/10 00:03:37;;;;;;;16.77;11.63;;;15.60;82.10;;;;;;5051672;28;20190;-77
2022/05/10 00:06:05;;;;;;;17.30;12.40;;;15.70;82.10;;;;;;5044528;28;20427;-78
2022/05/10 00:08:31;;;;;;;16.23;11.60;;;15.70;81.80;;;;;;5051396;28;20422;-78
2022/05/10 00:10:57;;;;;;;15.93;11.90;;;15.70;81.80;;;;;;5051211;28;21010;-77
2022/05/10 00:13:24;;;;;;;17.97;11.60;;;15.70;81.70;;;;;;5051738;28;20426;-76
2022/05/10 00:15:50;;;;;;;14.50;11.33;;;15.70;81.70;;;;;;5050965;28;20596;-77
2022/05/10 00:18:17;;;;;;;15.30;11.10;;;15.70;81.80;;;;;;5057643;28;20461;-78
2022/05/10 00:20:45;;;;;;;18.20;11.70;;;15.60;81.90;;;;;;5050832;28;20226;-78
2022/05/10 00:23:11;;;;;;;20.83;13.00;;;15.60;81.80;;;;;;5051303;28;20427;-77
2022/05/10 00:25:38;;;;;;;16.33;12.20;;;15.60;81.90;;;;;;5050529;28;20427;-78
2022/05/10 00:28:04;;;;;;;18.40;11.93;;;15.50;82.20;;;;;;5051581;28;20604;-78
2022/05/10 00:30:30;;;;;;;19.20;11.43;;;15.50;82.50;;;;;;5051833;28;20444;-77
2022/05/10 00:32:56;;;;;;;19.50;11.43;;;15.60;82.40;;;;;;5053654;28;20429;-77
2022/05/10 00:35:28;;;;;;;19.70;13.50;;;15.60;82.20;;;;;;5052798;28;20424;-77
2022/05/10 00:37:57;;;;;;;20.30;11.80;;;15.50;82.20;;;;;;5050609;28;20184;-78
2022/05/10 00:40:28;;;;;;;15.37;11.33;;;15.40;82.50;;;;;;5051559;28;20471;-77
2022/05/10 00:43:11;;;;;;;21.23;12.63;;;15.40;82.50;;;;;;5051325;28;20443;-78
2022/05/10 00:45:58;;;;;;;18.43;11.83;;;15.40;82.50;;;;;;5050238;28;20930;-78
2022/05/10 00:48:26;;;;;;;17.20;12.33;;;15.30;82.80;;;;;;5047740;28;20923;-77
2022/05/10 00:51:12;;;;;;;16.90;11.83;;;15.30;83.00;;;;;;5052673;28;20443;-78
2022/05/10 00:54:00;;;;;;;16.40;11.83;;;15.30;83.30;;;;;;5051304;28;20446;-76
2022/05/10 00:56:54;;;;;;;18.30;13.73;;;15.30;83.40;;;;;;5044639;28;20450;-76
2022/05/10 00:59:56;;;;;;;19.27;13.10;;;15.20;83.40;;;;;;5051531;28;20427;-77
2022/05/10 01:02:42;;;;;;;19.47;13.50;;;15.20;83.70;;;;;;4995440;28;20456;-76
2022/05/10 01:05:25;;;;;;;19.47;12.80;;;15.20;83.70;;;;;;5007606;28;20430;-77
2022/05/10 01:07:58;;;;;;;21.93;13.90;;;15.20;83.80;;;;;;5003155;28;20939;-78
2022/05/10 01:10:38;;;;;;;19.17;14.10;;;15.20;83.80;;;;;;5000217;28;20445;-78
2022/05/10 01:13:19;;;;;;;19.50;13.87;;;15.10;84.00;;;;;;4995815;28;20421;-77
2022/05/10 01:15:58;;;;;;;18.70;12.80;;;15.10;84.10;;;;;;4990933;28;20426;-78
2022/05/10 01:18:24;;;;;;;20.13;14.10;;;15.10;84.30;;;;;;5008151;28;20425;-77
2022/05/10 01:20:54;;;;;;;20.70;14.27;;;15.10;84.40;;;;;;5003930;28;20482;-76
2022/05/10 01:23:25;;;;;;;20.33;13.80;;;15.10;84.60;;;;;;5001104;28;20190;-77
2022/05/10 01:25:57;;;;;;;23.90;14.40;;;15.10;84.40;;;;;;5002179;28;20466;-77
2022/05/10 01:28:38;;;;;;;20.17;14.63;;;15.00;84.30;;;;;;5008162;28;20462;-76
2022/05/10 01:31:12;;;;;;;21.17;14.40;;;15.00;84.30;;;;;;4995973;28;20478;-76
2022/05/10 01:33:59;;;;;;;21.53;15.47;;;14.90;84.60;;;;;;5005498;28;20499;-77
2022/05/10 01:36:32;;;;;;;23.23;15.00;;;14.90;84.70;;;;;;5014103;28;20496;-77
2022/05/10 01:39:07;;;;;;;20.03;14.17;;;14.80;84.70;;;;;;5046966;28;20494;-76
2022/05/10 01:41:57;;;;;;;19.80;13.53;;;14.80;84.70;;;;;;5056101;28;20495;-76
2022/05/10 01:44:46;;;;;;;19.10;14.30;;;14.80;84.90;;;;;;5058375;28;20416;-76
2022/05/10 01:47:27;;;;;;;19.20;13.70;;;14.80;84.90;;;;;;5054545;28;20489;-77
2022/05/10 01:50:02;;;;;;;22.10;14.70;;;14.70;84.70;;;;;;5055839;28;20434;-76
2022/05/10 01:52:34;;;;;;;23.57;14.97;;;14.70;84.90;;;;;;5054035;28;21032;-77
2022/05/10 01:55:06;;;;;;;21.10;13.97;;;14.70;85.00;;;;;;5047835;28;20472;-76
2022/05/10 01:57:36;;;;;;;22.37;15.37;;;14.60;85.20;;;;;;5054746;28;20424;-76
2022/05/10 02:00:24;;;;;;;23.30;14.37;;;14.70;85.00;;;;;;5048439;28;20419;-75
2022/05/10 02:03:12;;;;;;;16.77;11.37;;;14.60;85.30;;;;;;5055304;28;20421;-77
2022/05/10 02:05:59;;;;;;;19.70;13.73;;;14.60;85.60;;;;;;5047473;28;20523;-77
2022/05/10 02:08:54;;;;;;;19.00;13.33;;;14.60;85.70;;;;;;5054775;28;20422;-77
2022/05/10 02:11:20;;;;;;;19.90;12.63;;;14.60;85.60;;;;;;5055705;28;20524;-77
2022/05/10 02:13:52;;;;;;;19.40;12.97;;;14.70;85.50;;;;;;5060543;28;20517;-77
2022/05/10 02:16:22;;;;;;;17.90;12.67;;;14.70;85.20;;;;;;5057494;28;20192;-77
2022/05/10 02:19:30;;;;;;;17.13;12.70;;;14.70;85.00;;;;;;5063537;28;20564;-78
2022/05/10 02:22:02;;;;;;;17.53;12.50;;;14.70;85.20;;;;;;5055805;28;20609;-78
2022/05/10 02:24:42;;;;;;;19.17;12.83;;;14.70;85.00;;;;;;5057176;28;20568;-77
2022/05/10 02:27:18;;;;;;;19.67;13.63;;;14.70;85.00;;;;;;5059861;28;20423;-77
2022/05/10 02:29:52;;;;;;;19.27;13.60;;;14.60;85.00;;;;;;5059127;28;20433;-77
2022/05/10 02:35:18;;;;;;;18.57;13.50;;;14.60;85.00;;;;;;5056953;28;20415;-77
2022/05/10 02:37:43;;;;;;;20.53;13.30;;;14.60;85.00;;;;;;5060432;28;20438;-78
2022/05/10 02:40:10;;;;;;;19.47;13.20;;;14.60;85.20;;;;;;5057698;28;20909;-76
2022/05/10 02:42:36;;;;;;;19.07;13.20;;;14.50;85.00;;;;;;5053418;28;20184;-76
2022/05/10 02:45:04;;;;;;;17.20;11.93;;;14.50;85.50;;;;;;5055629;28;20500;-75
2022/05/10 02:47:40;;;;;;;17.53;12.80;;;14.50;85.50;;;;;;5054026;28;20435;-75
2022/05/10 02:50:24;;;;;;;20.73;12.50;;;14.50;85.60;;;;;;5049313;28;20401;-76
2022/05/10 02:52:51;;;;;;;25.30;14.10;;;14.50;85.70;;;;;;5055293;28;20493;-76
2022/05/10 02:55:38;;;;;;;17.70;12.77;;;14.40;86.00;;;;;;5055086;28;20414;-76
2022/05/10 02:58:16;;;;;;;24.57;13.77;;;14.40;86.20;;;;;;5046885;28;20502;-76
2022/05/10 03:00:42;;;;;;;19.97;13.50;;;14.40;86.00;;;;;;5054087;28;20471;-77
2022/05/10 03:03:14;;;;;;;18.37;12.10;;;14.40;86.30;;;;;;5056328;28;20411;-78
2022/05/10 03:05:39;;;;;;;20.53;13.87;;;14.40;86.30;;;;;;5049830;28;20874;-77
2022/05/10 03:08:05;;;;;;;18.53;13.10;;;14.30;86.50;;;;;;5054264;28;20441;-78
2022/05/10 03:10:32;;;;;;;19.00;13.67;;;14.30;86.80;;;;;;5054701;28;20215;-78
2022/05/10 03:12:59;;;;;;;17.97;12.03;;;14.30;86.90;;;;;;5050784;28;20427;-79
2022/05/10 03:15:25;;;;;;;17.87;13.10;;;14.20;87.00;;;;;;5065044;28;20430;-76
2022/05/10 03:17:51;;;;;;;18.23;12.73;;;14.20;87.00;;;;;;5055429;28;20493;-77
2022/05/10 03:20:17;;;;;;;22.00;13.23;;;14.20;87.00;;;;;;5055167;28;20463;-78
2022/05/10 03:22:42;;;;;;;22.10;12.90;;;14.20;87.30;;;;;;5054804;28;20281;-76
2022/05/10 03:25:08;;;;;;;19.57;13.93;;;14.20;87.40;;;;;;5053956;28;21384;-76
2022/05/10 03:27:35;;;;;;;18.53;14.03;;;14.10;87.40;;;;;;5054365;28;20219;-75
2022/05/10 03:30:05;;;;;;;19.03;13.73;;;14.10;87.60;;;;;;5055864;28;20439;-76
2022/05/10 03:32:32;;;;;;;20.00;12.90;;;14.10;87.60;;;;;;5054766;28;20424;-77
2022/05/10 03:34:58;;;;;;;19.33;13.10;;;14.10;87.60;;;;;;5055406;28;20498;-76
2022/05/10 03:37:29;;;;;;;19.40;12.50;;;14.10;87.60;;;;;;5056750;28;20500;-77
2022/05/10 03:39:56;;;;;;;17.60;13.10;;;14.00;87.70;;;;;;5055025;28;20492;-76
2022/05/10 03:42:22;;;;;;;18.17;12.73;;;14.00;87.80;;;;;;5056703;28;20447;-76
2022/05/10 03:44:50;;;;;;;19.73;13.53;;;14.00;88.00;;;;;;5057204;28;20416;-77
2022/05/10 03:47:17;;;;;;;23.90;14.83;;;13.90;88.10;;;;;;5057700;28;20919;-77
2022/05/10 03:49:45;;;;;;;22.33;13.00;;;13.90;88.10;;;;;;5058600;28;20430;-76
2022/05/10 03:52:12;;;;;;;20.73;14.20;;;13.90;88.30;;;;;;5052181;28;20482;-77
2022/05/10 03:54:38;;;;;;;19.30;13.53;;;13.90;88.30;;;;;;5056409;28;20470;-77
2022/05/10 03:57:05;;;;;;;18.37;13.80;;;13.90;88.30;;;;;;5051214;28;20474;-76
2022/05/10 03:59:31;;;;;;;21.90;14.00;;;13.90;88.40;;;;;;5052224;28;20181;-77
2022/05/10 04:01:57;;;;;;;22.20;13.77;;;13.80;88.40;;;;;;5052295;28;20840;-76
2022/05/10 04:04:23;;;;;;;22.60;14.57;;;13.90;88.60;;;;;;5047287;28;20242;-77
2022/05/10 04:06:49;;;;;;;23.00;13.53;;;13.90;88.60;;;;;;5051525;28;20416;-75
2022/05/10 04:09:16;;;;;;;19.53;13.70;;;13.90;88.60;;;;;;5052420;28;20970;-76
2022/05/10 04:11:43;;;;;;;18.87;13.70;;;13.90;88.60;;;;;;5052318;28;20217;-77
2022/05/10 04:14:08;;;;;;;22.70;13.93;;;13.90;88.40;;;;;;5052940;28;20427;-77
2022/05/10 04:16:34;;;;;;;21.53;13.20;;;14.00;88.30;;;;;;5052523;28;20573;-75
2022/05/10 04:19:00;;;;;;;19.37;13.40;;;14.00;88.30;;;;;;5053013;28;20181;-77
2022/05/10 04:21:26;;;;;;;21.03;13.83;;;14.00;88.30;;;;;;5055461;28;20493;-77
2022/05/10 04:23:52;;;;;;;24.07;14.40;;;14.00;88.10;;;;;;5058435;28;20204;-77
2022/05/10 04:26:19;;;;;;;21.70;15.00;;;14.00;87.70;;;;;;5058723;28;20271;-77
2022/05/10 04:28:45;;;;;;;19.60;13.93;;;14.00;87.60;;;;;;5057002;28;20185;-75
2022/05/10 04:31:12;;;;;;;20.07;13.80;;;14.10;87.30;;;;;;5069310;28;20500;-75
2022/05/10 04:33:38;;;;;;;21.07;13.67;;;14.10;87.30;;;;;;5067407;28;20419;-76
2022/05/10 04:36:05;;;;;;;19.20;13.17;;;14.20;87.60;;;;;;5055125;28;20438;-76
2022/05/10 04:38:30;;;;;;;22.97;13.33;;;14.20;87.60;;;;;;5052567;28;20430;-74
2022/05/10 04:41:38;;;;;;;22.20;13.63;;;14.30;87.40;;;;;;5052258;28;20470;-79
2022/05/10 04:43:45;;;;;;;26.03;13.87;;;14.30;87.10;;;;;;5043517;28;20197;-77
2022/05/10 04:46:11;;;;;;;26.60;14.73;;;14.30;86.60;;;;;;5050801;28;20769;-76
2022/05/10 04:48:37;;;;;;;23.40;14.83;;;14.30;86.30;;;;;;5050171;28;20697;-76
2022/05/10 04:51:04;;;;;;;23.83;13.73;;;14.30;85.70;;;;;;5051393;28;20200;-75
2022/05/10 04:53:30;;;;;;;20.93;12.93;;;14.40;85.90;;;;;;5051068;28;20671;-77
2022/05/10 04:55:56;;;;;;;23.53;15.13;;;14.40;86.20;;;;;;5052185;28;20461;-77
2022/05/10 04:58:22;;;;;;;22.77;13.80;;;14.50;86.30;;;;;;5052268;28;20522;-77
2022/05/10 05:00:47;;;;;;;22.60;14.60;;;14.60;86.30;;;;;;5050945;28;20220;-76
2022/05/10 05:03:13;;;;;;;23.00;15.80;;;14.70;85.50;;;;;;5050645;28;20447;-75
2022/05/10 05:05:39;;;;;;;23.43;15.23;;;14.70;84.90;;;;;;5045261;28;20676;-76
2022/05/10 05:08:05;;;;;;;22.23;14.30;;;14.70;84.60;;;;;;5052591;28;20181;-78
2022/05/10 05:10:31;;;;;;;20.80;13.20;;;14.70;84.70;;;;;;5052800;28;20422;-77
2022/05/10 05:12:56;;;;;;;19.70;13.90;;;14.80;84.40;;;;;;5052127;28;20684;-76
2022/05/10 05:15:22;;;;;;;23.57;14.63;;;15.00;84.40;;;;;;5050983;28;20454;-75
2022/05/10 05:17:48;;;;;;;27.20;15.27;;;15.00;84.40;;;;;;5051023;28;20197;-75
2022/05/10 05:20:14;;;;;;;24.53;15.20;;;15.10;83.80;;;;;;5051723;28;20190;-75
2022/05/10 05:22:40;;;;;;;22.60;15.30;;;15.20;83.40;;;;;;5056034;28;20180;-75
2022/05/10 05:25:06;;;;;;;22.87;14.30;;;15.30;83.00;;;;;;5054722;28;20184;-75
2022/05/10 05:27:33;;;;;;;23.17;13.40;;;15.30;82.50;;;;;;5054791;28;20426;-76
2022/05/10 05:29:59;;;;;;;21.67;15.03;;;15.30;82.20;;;;;;5050769;28;20431;-75
2022/05/10 05:32:29;;;;;;;20.27;13.87;;;15.50;81.90;;;;;;5054262;28;20505;-76
2022/05/10 05:34:58;;;;;;;22.30;14.30;;;15.50;82.10;;;;;;5050647;28;20415;-75
2022/05/10 05:37:32;;;;;;;23.23;14.70;;;15.50;81.90;;;;;;5051566;28;20730;-76
2022/05/10 05:39:59;;;;;;;24.87;15.70;;;15.60;81.70;;;;;;5051479;28;20429;-76
2022/05/10 05:42:25;;;;;;;23.63;14.90;;;15.60;81.20;;;;;;5051943;28;20482;-76
2022/05/10 05:44:51;;;;;;;21.27;13.80;;;15.70;81.40;;;;;;5050830;28;20422;-76
2022/05/10 05:47:17;;;;;;;23.63;15.50;;;15.80;81.10;;;;;;5052762;28;20561;-76
2022/05/10 05:49:43;;;;;;;24.47;15.23;;;15.90;80.80;;;;;;5050458;28;20532;-75
2022/05/10 05:52:09;;;;;;;24.03;15.70;;;16.00;80.60;;;;;;5051187;28;20567;-75
2022/05/10 05:54:34;;;;;;;21.03;14.93;;;16.00;80.50;;;;;;5051785;28;20279;-77
2022/05/10 05:57:06;;;;;;;28.17;16.60;;;16.00;80.00;;;;;;5055850;28;20185;-76
2022/05/10 05:59:33;;;;;;;20.70;14.30;;;16.20;80.20;;;;;;5057048;28;20185;-76
2022/05/10 06:01:59;;;;;;;28.40;16.53;;;16.30;80.00;;;;;;5048582;28;21080;-75
2022/05/10 06:04:25;;;;;;;25.03;15.13;;;16.40;79.60;;;;;;5045293;28;20430;-76
2022/05/10 06:06:51;;;;;;;21.23;14.87;;;16.60;79.20;;;;;;5053797;28;20433;-76
2022/05/10 06:09:22;;;;;;;26.60;16.77;;;16.70;78.60;;;;;;5055088;28;20430;-76
2022/05/10 06:11:51;;;;;;;28.73;17.80;;;16.80;78.30;;;;;;5054645;28;20450;-76
2022/05/10 06:14:17;;;;;;;29.43;17.53;;;16.90;78.40;;;;;;5053095;28;20473;-75
2022/05/10 06:16:43;;;;;;;29.57;17.53;;;17.00;78.10;;;;;;5056223;28;20426;-76
2022/05/10 06:19:10;;;;;;;35.43;18.27;;;17.10;77.80;;;;;;5058971;28;20952;-74
2022/05/10 06:21:36;;;;;;;28.53;17.43;;;17.10;77.80;;;;;;5058796;28;20257;-75
2022/05/10 06:24:03;;;;;;;26.17;16.43;;;17.20;77.70;;;;;;5059370;28;20446;-75
2022/05/10 06:26:28;;;;;;;32.57;16.67;;;17.30;77.40;;;;;;5059238;28;20212;-75
2022/05/10 06:28:54;;;;;;;23.50;15.90;;;17.50;77.10;;;;;;5060323;28;20423;-77
2022/05/10 06:31:20;;;;;;;25.40;16.70;;;17.60;76.80;;;;;;5066865;28;20213;-75
2022/05/10 06:33:45;;;;;;;25.10;16.60;;;17.70;75.80;;;;;;5076315;28;20174;-75
2022/05/10 06:36:11;;;;;;;20.03;14.77;;;17.80;75.20;;;;;;5077273;28;20189;-75
2022/05/10 06:38:37;;;;;;;28.17;17.33;;;17.90;75.40;;;;;;5074750;28;20173;-76
2022/05/10 06:41:04;;;;;;;25.03;16.20;;;18.10;74.30;;;;;;5059411;28;20255;-75
2022/05/10 06:43:35;;;;;;;27.13;15.80;;;18.20;73.90;;;;;;5054738;28;20667;-75
2022/05/10 06:46:17;;;;;;;22.67;15.60;;;18.20;73.30;;;;;;5054577;28;20443;-74
2022/05/10 06:48:46;;;;;;;24.00;15.40;;;18.40;73.20;;;;;;5055078;28;20785;-76
2022/05/10 06:51:13;;;;;;;23.50;15.30;;;18.50;72.90;;;;;;5055340;28;20445;-77
2022/05/10 06:53:39;;;;;;;25.37;15.50;;;18.60;72.70;;;;;;5054650;28;20443;-75
2022/05/10 06:56:06;;;;;;;18.80;13.30;;;18.80;71.80;;;;;;5055612;28;20559;-76
2022/05/10 06:58:32;;;;;;;23.43;15.07;;;18.90;71.70;;;;;;5055467;28;20200;-75
2022/05/10 07:00:58;;;;;;;24.87;15.63;;;19.00;70.80;;;;;;5056247;28;20477;-75
2022/05/10 07:03:33;;;;;;;20.80;14.30;;;19.10;71.00;;;;;;5056019;28;20192;-76
2022/05/10 07:06:01;;;;;;;22.57;13.93;;;19.20;70.80;;;;;;5049699;28;20611;-76
2022/05/10 07:08:27;;;;;;;21.20;15.37;;;19.40;70.50;;;;;;5056790;28;20431;-76
2022/05/10 07:10:54;;;;;;;29.90;15.70;;;19.50;70.10;;;;;;5058158;28;20450;-76
2022/05/10 07:13:23;;;;;;;19.03;13.40;;;19.40;69.90;;;;;;5060886;28;20496;-74
2022/05/10 07:15:49;;;;;;;22.80;14.27;;;19.40;69.80;;;;;;5057494;28;20427;-75
2022/05/10 07:18:16;;;;;;;17.37;12.87;;;19.50;69.80;;;;;;5056959;28;20786;-75
2022/05/10 07:20:42;;;;;;;13.53;10.60;;;19.60;69.10;;;;;;5055936;28;20497;-75
2022/05/10 07:23:09;;;;;;;18.37;11.80;;;19.80;67.70;;;;;;5055232;28;20415;-76
2022/05/10 07:25:35;;;;;;;22.97;13.47;;;19.60;67.90;;;;;;5056485;28;20535;-75
2022/05/10 07:28:00;;;;;;;14.57;11.27;;;19.80;69.10;;;;;;5053422;28;20988;-76
2022/05/10 07:30:27;;;;;;;17.27;11.30;;;19.80;67.60;;;;;;5052931;28;20287;-74
2022/05/10 07:32:54;;;;;;;21.27;10.57;;;19.80;67.50;;;;;;5053374;28;20208;-74
2022/05/10 07:36:23;;;;;;;15.87;11.13;;;19.80;66.90;;;;;;5051999;28;20968;-76
2022/05/10 07:38:09;;;;;;;16.77;11.30;;;19.90;67.00;;;;;;5052387;28;20418;-75
2022/05/10 07:40:36;;;;;;;17.97;10.90;;;19.90;66.60;;;;;;5052983;28;20475;-75
2022/05/10 07:43:02;;;;;;;13.03;10.50;;;20.00;67.00;;;;;;5052337;28;20490;-76
2022/05/10 07:45:28;;;;;;;14.20;10.57;;;20.00;66.40;;;;;;5051592;28;20994;-75
2022/05/10 07:47:54;;;;;;;16.00;10.50;;;20.10;66.60;;;;;;5052213;28;20428;-75
2022/05/10 07:50:20;;;;;;;17.60;10.63;;;20.20;65.80;;;;;;5051172;28;20439;-76
2022/05/10 07:52:46;;;;;;;13.87;9.93;;;20.20;66.10;;;;;;5052105;28;20212;-77
2022/05/10 07:55:13;;;;;;;13.40;9.87;;;20.30;65.00;;;;;;5051880;28;20430;-75
2022/05/10 07:57:40;;;;;;;11.63;9.50;;;20.50;65.10;;;;;;5051839;28;20429;-76
2022/05/10 08:00:11;;;;;;;14.43;10.73;;;20.40;65.00;;;;;;5051927;28;20421;-76
2022/05/10 08:02:37;;;;;;;12.73;9.33;;;20.60;64.50;;;;;;5050967;28;20419;-76
2022/05/10 08:05:03;;;;;;;18.07;10.13;;;20.60;64.50;;;;;;5045522;28;20514;-77
2022/05/10 08:07:29;;;;;;;12.13;9.43;;;20.70;64.10;;;;;;5051799;28;20455;-77
2022/05/10 08:09:55;;;;;;;12.47;9.10;;;20.80;63.40;;;;;;5050707;28;20845;-75
2022/05/10 08:12:21;;;;;;;14.23;9.00;;;20.90;63.10;;;;;;5052169;28;20209;-76
2022/05/10 08:14:47;;;;;;;14.03;9.10;;;20.90;61.60;;;;;;5053236;28;20422;-76
2022/05/10 08:17:13;;;;;;;10.50;8.47;;;21.00;61.70;;;;;;5051836;28;20425;-76
2022/05/10 08:19:39;;;;;;;17.43;10.03;;;21.10;61.90;;;;;;5054747;28;20194;-75
2022/05/10 08:22:04;;;;;;;12.10;9.33;;;21.10;61.90;;;;;;5054911;28;20218;-76
2022/05/10 08:24:30;;;;;;;10.80;8.20;;;21.20;61.90;;;;;;5051753;28;20907;-75
2022/05/10 08:26:56;;;;;;;11.87;8.10;;;21.30;61.20;;;;;;5051112;28;20198;-76
2022/05/10 08:29:22;;;;;;;13.63;9.33;;;21.40;60.40;;;;;;5051934;28;20250;-75
2022/05/10 08:31:47;;;;;;;13.37;9.37;;;21.40;60.70;;;;;;5049918;28;20697;-76
2022/05/10 08:34:13;;;;;;;10.70;9.13;;;21.40;60.60;;;;;;5051341;28;20190;-75
2022/05/10 08:36:40;;;;;;;11.70;9.03;;;21.50;60.60;;;;;;5050361;28;20686;-75
2022/05/10 08:39:06;;;;;;;12.23;10.00;;;21.60;60.70;;;;;;5051370;28;20188;-76
2022/05/10 08:41:52;;;;;;;14.27;9.80;;;21.70;60.30;;;;;;5051314;28;20478;-75
2022/05/10 08:44:24;;;;;;;12.30;9.17;;;21.70;60.70;;;;;;5053083;28;20653;-74
2022/05/10 08:46:58;;;;;;;12.40;9.97;;;21.80;60.10;;;;;;5051858;28;20563;-76
2022/05/10 08:49:34;;;;;;;12.07;9.23;;;21.90;60.70;;;;;;5052912;28;20433;-76
2022/05/10 08:52:00;;;;;;;15.57;10.20;;;21.90;61.20;;;;;;5043804;28;20441;-77
2022/05/10 08:54:29;;;;;;;14.00;10.27;;;22.00;61.00;;;;;;5052391;28;20446;-75
2022/05/10 08:56:59;;;;;;;15.13;10.90;;;22.10;59.90;;;;;;5051786;28;20426;-77
2022/05/10 08:59:53;;;;;;;12.90;9.40;;;22.20;59.70;;;;;;5053462;28;20423;-74
2022/05/10 09:02:54;;;;;;;16.67;9.50;;;22.20;59.70;;;;;;5052949;28;20875;-77
2022/05/10 09:05:38;;;;;;;15.53;9.53;;;22.40;58.90;;;;;;5011685;28;20431;-76
2022/05/10 09:08:24;;;;;;;13.63;9.27;;;22.60;59.10;;;;;;5010624;28;20511;-76
2022/05/10 09:11:13;;;;;;;14.57;8.70;;;22.80;58.40;;;;;;5011313;28;20438;-77
2022/05/10 09:13:40;;;;;;;10.93;8.67;;;22.80;58.70;;;;;;5011484;28;20417;-76
2022/05/10 09:16:12;;;;;;;11.30;8.67;;;22.90;57.40;;;;;;5014586;28;20423;-76
2022/05/10 09:18:46;;;;;;;13.57;8.73;;;23.00;56.60;;;;;;5011855;28;20413;-76
2022/05/10 09:21:21;;;;;;;10.50;8.27;;;22.90;55.40;;;;;;5011174;28;20456;-77
2022/05/10 09:24:02;;;;;;;10.00;7.83;;;23.00;55.20;;;;;;5009641;28;20909;-77
2022/05/10 09:26:37;;;;;;;10.83;8.10;;;23.10;53.00;;;;;;5006012;28;20857;-76
2022/05/10 09:29:21;;;;;;;9.13;7.37;;;23.20;53.00;;;;;;5011379;28;20425;-78
2022/05/10 09:34:47;;;;;;;10.30;7.83;;;23.40;52.40;;;;;;5011062;28;20944;-75
2022/05/10 09:37:27;;;;;;;13.70;8.70;;;23.60;53.60;;;;;;4997280;28;20847;-77
2022/05/10 09:39:56;;;;;;;10.40;8.83;;;23.60;52.90;;;;;;5011481;28;20437;-78
2022/05/10 09:42:43;;;;;;;12.63;7.87;;;23.60;52.50;;;;;;5043207;28;20576;-76
2022/05/10 09:45:15;;;;;;;9.17;7.23;;;23.50;52.90;;;;;;5045190;28;20462;-77
2022/05/10 09:47:59;;;;;;;11.07;7.57;;;23.60;51.00;;;;;;5052698;28;20448;-77
2022/05/10 09:50:33;;;;;;;14.53;8.77;;;23.70;51.20;;;;;;5052692;28;20458;-78
2022/05/10 09:53:11;;;;;;;10.27;7.80;;;23.80;52.00;;;;;;5055669;28;20431;-77
2022/05/10 09:55:39;;;;;;;8.20;7.20;;;24.00;51.30;;;;;;5057199;28;20415;-77
2022/05/10 09:58:17;;;;;;;9.90;6.87;;;24.20;50.30;;;;;;5057872;28;20409;-77
2022/05/10 10:00:51;;;;;;;8.73;7.27;;;24.60;48.20;;;;;;5057986;28;20458;-77
2022/05/10 10:03:40;;;;;;;9.17;7.37;;;25.10;46.70;;;;;;5058104;28;20412;-79
2022/05/10 10:06:22;;;;;;;11.33;7.70;;;25.40;45.90;;;;;;5056750;28;20453;-77
2022/05/10 10:08:50;;;;;;;11.03;7.73;;;25.90;44.50;;;;;;5063771;28;20482;-77
2022/05/10 10:11:21;;;;;;;9.50;8.20;;;26.00;45.40;;;;;;5059097;28;20447;-76
2022/05/10 10:13:51;;;;;;;8.43;7.97;;;26.00;45.50;;;;;;5062267;28;20447;-77
2022/05/10 10:16:26;;;;;;;8.97;7.90;;;25.80;45.90;;;;;;5061822;28;20429;-78
2022/05/10 10:18:58;;;;;;;10.50;8.40;;;26.00;45.80;;;;;;5057573;28;20475;-74
2022/05/10 10:21:41;;;;;;;9.23;7.73;;;26.40;45.40;;;;;;5056277;28;20465;-76
2022/05/10 10:24:07;;;;;;;9.47;6.73;;;26.70;44.20;;;;;;5051640;28;20413;-76
2022/05/10 10:26:38;;;;;;;9.60;7.77;;;26.90;43.70;;;;;;5057030;28;20512;-76
2022/05/10 10:29:53;;;;;;;9.97;7.00;;;27.30;42.60;;;;;;5047231;28;20425;-77
2022/05/10 10:32:32;;;;;;;8.03;6.90;;;27.90;41.50;;;;;;5046841;28;20450;-77
2022/05/10 10:35:13;;;;;;;8.70;7.00;;;28.30;40.30;;;;;;5053471;28;20460;-76
2022/05/10 10:37:54;;;;;;;9.90;6.87;;;28.30;39.50;;;;;;5054536;28;20929;-78
2022/05/10 10:40:47;;;;;;;9.77;6.90;;;28.70;38.00;;;;;;5055058;28;20450;-78
2022/05/10 10:43:13;;;;;;;10.40;6.97;;;29.10;36.70;;;;;;5052126;28;20427;-77
2022/05/10 10:45:48;;;;;;;7.93;7.10;;;29.30;36.60;;;;;;5053014;28;20446;-79
2022/05/10 10:48:28;;;;;;;9.47;6.70;;;29.40;36.40;;;;;;5053112;28;20338;-77
2022/05/10 10:50:56;;;;;;;11.57;7.63;;;29.40;36.60;;;;;;5053535;28;20438;-76
2022/05/10 10:53:25;;;;;;;8.00;6.60;;;28.90;36.40;;;;;;5053918;28;20443;-76
2022/05/10 10:56:06;;;;;;;7.90;6.23;;;28.80;38.00;;;;;;5055176;28;20426;-78
2022/05/10 10:59:33;;;;;;;9.77;6.90;;;28.70;37.60;;;;;;5055300;28;20871;-79
2022/05/10 11:02:07;;;;;;;9.80;7.00;;;28.20;39.10;;;;;;4986376;28;20500;-77
2022/05/10 11:04:42;;;;;;;10.50;7.50;;;28.00;39.20;;;;;;4992503;28;20563;-78
2022/05/10 11:07:25;;;;;;;9.73;7.63;;;27.60;39.80;;;;;;4993148;28;20436;-77
2022/05/10 11:09:58;;;;;;;9.43;6.30;;;27.40;40.20;;;;;;4995408;28;20428;-77
2022/05/10 11:13:01;;;;;;;8.97;6.57;;;27.20;40.40;;;;;;4991483;28;20468;-76
2022/05/10 11:15:41;;;;;;;9.60;6.30;;;27.20;41.20;;;;;;4897820;29;20455;-77
2022/05/10 11:18:25;;;;;;;8.60;6.20;;;27.40;41.40;;;;;;4890114;29;20471;-76
2022/05/10 11:21:31;;;;;;;9.20;6.77;;;28.00;40.00;;;;;;4881190;29;20633;-77
2022/05/10 11:24:16;;;;;;;12.43;6.80;;;28.70;38.00;;;;;;4893371;29;20430;-76
2022/05/10 11:26:58;;;;;;;7.13;6.13;;;29.10;37.10;;;;;;4896893;29;20451;-77
2022/05/10 11:29:27;;;;;;;10.47;6.17;;;29.20;35.70;;;;;;4893454;29;20938;-77
2022/05/10 11:32:21;;;;;;;9.67;6.90;;;28.80;36.40;;;;;;4889047;29;20470;-77
2022/05/10 11:35:01;;;;;;;8.47;6.57;;;28.80;37.10;;;;;;4897003;29;20937;-76
2022/05/10 11:37:47;;;;;;;9.33;5.63;;;28.80;37.10;;;;;;4897634;29;20999;-77
2022/05/10 11:40:25;;;;;;;8.30;6.70;;;28.60;38.30;;;;;;4967773;28;21393;-78
2022/05/10 11:43:07;;;;;;;7.90;6.40;;;28.20;36.70;;;;;;4973677;28;20425;-76
2022/05/10 11:45:51;;;;;;;9.00;6.40;;;27.20;38.60;;;;;;4973979;28;20790;-75
2022/05/10 11:48:35;;;;;;;11.07;6.57;;;26.80;38.00;;;;;;4970034;28;20432;-74
2022/05/10 11:51:39;;;;;;;8.33;6.63;;;26.40;39.80;;;;;;5007994;28;20442;-75
2022/05/10 11:55:09;;;;;;;7.90;6.23;;;26.40;41.50;;;;;;5048861;28;20446;-76
2022/05/10 11:57:37;;;;;;;8.23;5.90;;;26.50;41.20;;;;;;5029681;28;20419;-76
2022/05/10 12:00:40;;;;;;;7.57;6.63;;;26.80;41.20;;;;;;5031682;28;20454;-76
2022/05/10 12:03:38;;;;;;;8.10;6.73;;;27.10;41.20;;;;;;5029138;28;20427;-76
2022/05/10 12:06:22;;;;;;;8.50;6.00;;;27.30;38.60;;;;;;5030788;28;21039;-76
2022/05/10 12:08:49;;;;;;;6.53;5.70;;;27.10;38.60;;;;;;5031733;28;20790;-78
2022/05/10 12:11:49;;;;;;;8.30;6.30;;;27.10;38.60;;;;;;5045064;28;20458;-75
2022/05/10 12:24:02;;;;;;;8.13;5.80;;;26.70;38.70;;;;;;5040527;28;20419;-78
2022/05/10 12:26:44;;;;;;;7.63;5.83;;;26.80;39.80;;;;;;5032104;28;20761;-75
2022/05/10 12:29:37;;;;;;;7.60;6.00;;;27.00;39.50;;;;;;5052917;28;20416;-78
2022/05/10 12:32:17;;;;;;;7.27;5.90;;;27.20;38.60;;;;;;5052665;28;20488;-78
2022/05/10 12:34:58;;;;;;;8.93;5.80;;;27.20;38.30;;;;;;5052624;28;20424;-76
2022/05/10 12:40:03;;;;;;;8.80;6.13;;;26.90;38.20;;;;;;5051554;28;20440;-75
2022/05/10 12:43:07;;;;;;;13.57;6.77;;;26.70;39.00;;;;;;5052410;28;20478;-77
2022/05/10 12:46:10;;;;;;;8.50;6.07;;;26.80;38.40;;;;;;5041603;28;20558;-75
2022/05/10 12:49:01;;;;;;;6.20;5.47;;;27.00;38.30;;;;;;5049269;28;20917;-77
2022/05/10 12:51:46;;;;;;;9.00;6.07;;;27.20;37.00;;;;;;5052761;28;20765;-77
2022/05/10 12:54:17;;;;;;;6.07;5.83;;;27.70;36.30;;;;;;5046572;28;20438;-76
2022/05/10 12:56:46;;;;;;;8.13;6.20;;;28.10;35.60;;;;;;5052362;28;20450;-76
2022/05/10 12:59:16;;;;;;;8.17;6.37;;;28.50;35.30;;;;;;5055028;28;20423;-77
2022/05/10 13:01:43;;;;;;;10.90;7.20;;;28.70;34.90;;;;;;5051762;28;20466;-77
2022/05/10 13:04:16;;;;;;;7.77;5.83;;;28.80;35.20;;;;;;5056859;28;20458;-76
2022/05/10 13:07:07;;;;;;;8.13;5.83;;;29.00;34.90;;;;;;5058379;28;20481;-76
2022/05/10 13:09:41;;;;;;;10.37;6.03;;;29.30;34.40;;;;;;5045989;28;20838;-77
2022/05/10 13:12:18;;;;;;;7.30;5.07;;;29.40;33.70;;;;;;5050222;28;20442;-76
2022/05/10 13:14:52;;;;;;;6.90;5.77;;;30.00;33.20;;;;;;5048794;28;20430;-77
2022/05/10 13:17:33;;;;;;;7.30;5.63;;;30.00;32.00;;;;;;5050356;28;20518;-76
2022/05/10 13:20:06;;;;;;;9.83;6.60;;;29.40;33.20;;;;;;5043726;28;20506;-78
2022/05/10 13:22:32;;;;;;;7.33;6.03;;;28.90;34.10;;;;;;5046631;28;20830;-77